createdAt,value
2023-04-06T00:00:40.354Z,36.05
2023-04-06T00:03:07.542Z,35.22
2023-04-06T00:05:34.436Z,33.90
2023-04-06T00:08:01.300Z,35.67
2023-04-06T00:10:28.395Z,35.58
2023-04-06T00:12:57.461Z,35.55
2023-04-06T00:15:24.337Z,33.38
2023-04-06T00:17:51.265Z,34.60
2023-04-06T00:20:19.577Z,34.88
2023-04-06T00:22:46.591Z,34.03
2023-04-06T00:25:13.312Z,34.92
2023-04-06T00:27:40.333Z,34.50
2023-04-06T00:30:08.115Z,36.45
2023-04-06T00:32:36.321Z,34.17
2023-04-06T00:35:04.673Z,33.85
2023-04-06T00:37:31.691Z,33.97
2023-04-06T00:39:58.387Z,35.05
2023-04-06T00:42:28.452Z,34.88
2023-04-06T00:44:57.168Z,34.05
2023-04-06T00:47:26.531Z,34.63
2023-04-06T00:49:55.270Z,34.92
2023-04-06T00:52:22.396Z,34.72
2023-04-06T00:54:51.189Z,35.55
2023-04-06T00:57:20.252Z,33.42
2023-04-06T00:59:53.540Z,35.58
2023-04-06T01:02:20.865Z,35.38
2023-04-06T01:04:50.911Z,34.10
2023-04-06T01:07:25.822Z,35.08
2023-04-06T01:10:26.161Z,33.63
2023-04-06T01:12:57.695Z,33.97
2023-04-06T01:15:50.881Z,33.80
2023-04-06T01:18:28.588Z,34.13
2023-04-06T01:21:09.515Z,35.47
2023-04-06T01:23:36.513Z,37.28
2023-04-06T01:26:03.662Z,35.20
2023-04-06T01:28:31.619Z,34.67
2023-04-06T01:31:17.337Z,36.08
2023-04-06T01:33:48.352Z,36.42
2023-04-06T01:36:18.247Z,35.78
2023-04-06T01:38:48.975Z,37.15
2023-04-06T01:41:18.641Z,37.63
2023-04-06T01:43:55.318Z,38.83
2023-04-06T01:46:25.248Z,37.33
2023-04-06T01:48:52.826Z,38.58
2023-04-06T01:51:31.800Z,39.20
2023-04-06T01:54:01.270Z,40.78
2023-04-06T01:56:38.450Z,39.45
2023-04-06T01:59:21.972Z,41.65
2023-04-06T02:01:48.765Z,39.42
2023-04-06T02:04:15.662Z,40.20
2023-04-06T02:06:44.011Z,41.03
2023-04-06T02:09:12.796Z,39.90
2023-04-06T02:11:39.821Z,39.00
2023-04-06T02:14:06.819Z,40.50
2023-04-06T02:16:39.118Z,39.72
2023-04-06T02:19:06.020Z,39.08
2023-04-06T02:21:32.836Z,39.50
2023-04-06T02:23:59.503Z,41.72
2023-04-06T02:26:26.229Z,40.45
2023-04-06T02:28:53.267Z,40.10
2023-04-06T02:31:20.366Z,41.38
2023-04-06T02:33:47.100Z,38.55
2023-04-06T02:36:15.730Z,39.33
2023-04-06T02:38:42.454Z,37.70
2023-04-06T02:41:09.790Z,37.40
2023-04-06T02:43:37.703Z,38.75
2023-04-06T02:46:10.444Z,38.03
2023-04-06T02:48:39.275Z,38.03
2023-04-06T02:51:06.096Z,37.22
2023-04-06T02:53:33.340Z,40.25
2023-04-06T02:56:00.202Z,36.42
2023-04-06T02:58:34.935Z,38.83
2023-04-06T03:01:01.756Z,36.92
2023-04-06T03:03:28.539Z,36.60
2023-04-06T03:05:59.379Z,37.08
2023-04-06T03:08:28.838Z,38.60
2023-04-06T03:10:55.792Z,39.20
2023-04-06T03:13:29.411Z,37.13
2023-04-06T03:15:58.249Z,37.65
2023-04-06T03:18:26.833Z,37.45
2023-04-06T03:20:56.224Z,37.55
2023-04-06T03:23:27.598Z,38.10
2023-04-06T03:25:58.558Z,39.88
2023-04-06T03:28:25.309Z,39.63
2023-04-06T03:31:04.119Z,38.38
2023-04-06T03:33:43.040Z,36.97
2023-04-06T03:36:15.543Z,37.67
2023-04-06T03:38:44.103Z,39.63
2023-04-06T03:41:13.243Z,36.60
2023-04-06T03:43:44.204Z,40.35
2023-04-06T03:46:11.296Z,38.85
2023-04-06T03:48:38.110Z,39.35
2023-04-06T03:51:06.736Z,39.53
2023-04-06T03:53:33.571Z,38.50
2023-04-06T03:56:00.953Z,40.05
2023-04-06T03:58:28.987Z,38.05
2023-04-06T04:00:55.643Z,37.55
2023-04-06T04:03:24.388Z,38.20
2023-04-06T04:05:51.875Z,40.67
2023-04-06T04:08:18.773Z,40.38
2023-04-06T04:10:48.412Z,40.30
2023-04-06T04:13:15.343Z,41.35
2023-04-06T04:15:45.120Z,39.58
2023-04-06T04:18:16.466Z,40.13
2023-04-06T04:20:43.161Z,42.03
2023-04-06T04:23:11.757Z,39.90
2023-04-06T04:25:38.523Z,40.53
2023-04-06T04:28:05.445Z,41.67
2023-04-06T04:30:32.675Z,40.40
2023-04-06T04:32:59.446Z,40.63
2023-04-06T04:35:27.716Z,41.15
2023-04-06T04:37:54.518Z,39.45
2023-04-06T04:40:21.246Z,43.05
2023-04-06T04:42:52.894Z,40.15
2023-04-06T04:45:27.179Z,40.92
2023-04-06T04:47:54.679Z,42.85
2023-04-06T04:50:24.992Z,41.22
2023-04-06T04:52:56.087Z,40.92
2023-04-06T04:55:25.733Z,40.40
2023-04-06T04:57:55.169Z,39.75
2023-04-06T05:00:28.459Z,40.65
2023-04-06T05:02:58.298Z,43.58
2023-04-06T05:05:28.479Z,45.10
2023-04-06T05:07:55.563Z,45.22
2023-04-06T05:10:31.566Z,44.28
2023-04-06T05:13:01.311Z,47.08
2023-04-06T05:15:28.772Z,47.25
2023-04-06T05:18:02.321Z,46.33
2023-04-06T05:20:33.037Z,47.97
2023-04-06T05:23:00.290Z,47.63
2023-04-06T05:25:27.572Z,48.83
2023-04-06T05:27:57.723Z,47.40
2023-04-06T05:30:29.702Z,47.80
2023-04-06T05:32:56.510Z,48.97
2023-04-06T05:35:26.074Z,48.38
2023-04-06T05:37:56.931Z,46.33
2023-04-06T05:40:26.076Z,47.58
2023-04-06T05:42:53.466Z,45.30
2023-04-06T05:45:22.096Z,44.67
2023-04-06T05:47:52.930Z,45.42
2023-04-06T05:50:24.607Z,44.08
2023-04-06T05:52:51.524Z,44.80
2023-04-06T05:55:21.496Z,46.47
2023-04-06T05:57:54.687Z,46.63
2023-04-06T06:00:22.178Z,46.78
2023-04-06T06:03:00.044Z,49.10
2023-04-06T06:05:30.672Z,48.83
2023-04-06T06:08:03.140Z,50.80
2023-04-06T06:10:30.703Z,45.72
2023-04-06T06:12:58.964Z,46.88
2023-04-06T06:15:26.968Z,47.55
2023-04-06T06:17:53.649Z,46.05
2023-04-06T06:20:20.824Z,44.28
2023-04-06T06:22:48.261Z,44.42
2023-04-06T06:25:18.648Z,44.08
2023-04-06T06:27:47.485Z,43.75
2023-04-06T06:30:16.627Z,41.47
2023-04-06T06:32:45.026Z,42.95
2023-04-06T06:35:11.741Z,38.88
2023-04-06T06:37:38.885Z,40.92
2023-04-06T06:40:06.643Z,38.53
2023-04-06T06:42:35.616Z,41.45
2023-04-06T06:45:22.590Z,38.35
2023-04-06T06:47:49.472Z,39.25
2023-04-06T06:50:16.417Z,38.50
2023-04-06T06:52:43.565Z,36.72
2023-04-06T06:55:11.789Z,38.45
2023-04-06T06:57:39.234Z,37.75
2023-04-06T07:00:08.333Z,38.85
2023-04-06T07:02:36.726Z,39.28
2023-04-06T07:05:10.213Z,37.85
2023-04-06T07:07:43.497Z,38.70
2023-04-06T07:10:10.861Z,43.25
2023-04-06T07:12:38.926Z,40.38
2023-04-06T07:15:06.285Z,42.38
2023-04-06T07:17:34.153Z,40.58
2023-04-06T07:20:01.025Z,41.95
2023-04-06T07:22:27.691Z,45.28
2023-04-06T07:24:54.540Z,40.88
2023-04-06T07:27:21.302Z,42.90
2023-04-06T07:29:48.325Z,42.45
2023-04-06T07:32:15.627Z,42.47
2023-04-06T07:34:42.596Z,47.03
2023-04-06T07:37:09.320Z,45.17
2023-04-06T07:39:36.340Z,45.90
2023-04-06T07:42:03.090Z,45.83
2023-04-06T07:44:29.780Z,47.90
2023-04-06T07:46:57.315Z,46.35
2023-04-06T07:49:24.186Z,48.08
2023-04-06T07:51:51.257Z,46.10
2023-04-06T07:54:18.003Z,46.95
2023-04-06T07:56:45.596Z,46.15
2023-04-06T07:59:12.471Z,47.17
2023-04-06T08:01:39.271Z,46.10
2023-04-06T08:04:06.132Z,46.92
2023-04-06T08:06:33.254Z,46.80
2023-04-06T08:09:00.032Z,45.67
2023-04-06T08:11:27.536Z,44.67
2023-04-06T08:13:55.108Z,45.15
2023-04-06T08:16:21.847Z,44.92
2023-04-06T08:18:48.620Z,46.08
2023-04-06T08:21:15.622Z,46.30
2023-04-06T08:23:42.347Z,45.58
2023-04-06T08:26:09.085Z,45.67
2023-04-06T08:28:36.404Z,44.88
2023-04-06T08:31:06.989Z,43.50
2023-04-06T08:33:37.343Z,46.15
2023-04-06T08:36:14.518Z,52.60
2023-04-06T08:38:42.347Z,52.05
2023-04-06T08:41:13.219Z,53.60
2023-04-06T08:44:01.985Z,52.55
2023-04-06T08:46:31.434Z,52.65
2023-04-06T08:49:00.583Z,56.30
2023-04-06T08:51:34.228Z,54.75
2023-04-06T08:54:01.723Z,55.33
2023-04-06T08:56:29.180Z,53.00
2023-04-06T08:58:56.750Z,53.35
2023-04-06T09:01:28.157Z,54.03
2023-04-06T09:04:08.189Z,54.00
2023-04-06T09:06:37.879Z,53.90
2023-04-06T09:09:04.835Z,53.80
2023-04-06T09:11:46.700Z,54.88
2023-04-06T09:14:13.709Z,52.15
2023-04-06T09:16:42.565Z,52.80
2023-04-06T09:19:10.314Z,55.90
2023-04-06T09:21:38.009Z,54.33
2023-04-06T09:24:05.547Z,54.90
2023-04-06T09:26:34.624Z,57.28
2023-04-06T09:29:02.419Z,57.22
2023-04-06T09:31:33.760Z,56.92
2023-04-06T09:34:01.853Z,57.00
2023-04-06T09:36:39.378Z,53.78
2023-04-06T09:39:06.293Z,53.05
2023-04-06T09:41:42.180Z,55.38
2023-04-06T09:44:11.125Z,55.80
2023-04-06T09:47:05.965Z,56.00
2023-04-06T09:49:35.707Z,57.70
2023-04-06T09:52:12.232Z,55.40
2023-04-06T09:54:39.457Z,55.58
2023-04-06T09:57:11.185Z,55.40
2023-04-06T09:59:45.657Z,54.28
2023-04-06T10:02:51.322Z,54.53
2023-04-06T10:05:59.476Z,54.42
2023-04-06T10:08:31.680Z,55.83
2023-04-06T10:11:01.514Z,56.78
2023-04-06T10:13:28.403Z,54.55
2023-04-06T10:15:55.896Z,54.70
2023-04-06T10:18:22.953Z,56.53
2023-04-06T10:21:11.099Z,56.38
2023-04-06T10:23:44.556Z,55.05
2023-04-06T10:26:17.413Z,56.20
2023-04-06T10:28:46.907Z,56.92
2023-04-06T10:31:13.844Z,57.85
2023-04-06T10:33:53.951Z,58.45
2023-04-06T10:36:26.472Z,58.08
2023-04-06T10:39:02.636Z,58.15
2023-04-06T10:41:54.154Z,60.30
2023-04-06T10:44:25.373Z,60.58
2023-04-06T10:47:02.516Z,62.25
2023-04-06T10:49:29.238Z,62.92
2023-04-06T10:51:57.215Z,62.83
2023-04-06T10:54:26.762Z,63.80
2023-04-06T10:56:53.459Z,61.55
2023-04-06T10:59:22.477Z,63.72
2023-04-06T11:01:49.980Z,65.03
2023-04-06T11:04:18.944Z,62.28
2023-04-06T11:06:50.704Z,65.65
2023-04-06T11:09:28.655Z,63.95
2023-04-06T11:11:57.109Z,64.15
2023-04-06T11:14:24.274Z,63.20
2023-04-06T11:16:52.234Z,62.92
2023-04-06T11:19:19.302Z,61.25
2023-04-06T11:21:48.472Z,59.88
2023-04-06T11:24:16.426Z,65.47
2023-04-06T11:26:52.005Z,60.92
2023-04-06T11:29:20.923Z,62.72
2023-04-06T11:31:51.938Z,68.32
2023-04-06T11:34:23.955Z,74.05
2023-04-06T11:36:57.512Z,63.35
2023-04-06T11:39:26.292Z,65.38
2023-04-06T11:42:04.486Z,63.00
2023-04-06T11:44:43.581Z,64.57
2023-04-06T11:47:12.316Z,65.13
2023-04-06T11:49:41.118Z,63.63
2023-04-06T11:52:21.650Z,67.85
2023-04-06T11:54:49.953Z,66.05
2023-04-06T11:57:20.752Z,66.63
2023-04-06T11:59:47.781Z,66.25
2023-04-06T12:02:14.669Z,66.60
2023-04-06T12:04:41.369Z,66.55
2023-04-06T12:07:08.371Z,63.25
2023-04-06T12:09:36.795Z,63.00
2023-04-06T12:12:04.477Z,63.83
2023-04-06T12:14:31.672Z,62.45
2023-04-06T12:16:59.307Z,63.17
2023-04-06T12:19:26.963Z,61.72
2023-04-06T12:21:58.572Z,63.70
2023-04-06T12:24:25.372Z,61.80
2023-04-06T12:26:59.489Z,63.60
2023-04-06T12:29:29.905Z,65.63
2023-04-06T12:31:57.181Z,65.38
2023-04-06T12:34:23.988Z,65.13
2023-04-06T12:36:51.201Z,65.20
2023-04-06T12:39:21.656Z,65.53
2023-04-06T12:41:48.640Z,68.55
2023-04-06T12:44:15.523Z,65.22
2023-04-06T12:46:44.078Z,65.72
2023-04-06T12:49:10.926Z,64.82
2023-04-06T12:51:37.742Z,56.38
2023-04-06T12:54:04.599Z,63.60
2023-04-06T12:56:35.550Z,65.38
2023-04-06T12:59:02.454Z,65.82
2023-04-06T13:01:29.516Z,68.50
2023-04-06T13:03:58.005Z,68.22
2023-04-06T13:06:28.257Z,67.28
2023-04-06T13:08:55.335Z,69.90
2023-04-06T13:11:26.146Z,71.18
2023-04-06T13:13:53.847Z,69.20
2023-04-06T13:16:20.657Z,73.65
2023-04-06T13:18:47.568Z,99.25
2023-04-06T13:21:17.976Z,76.05
2023-04-06T13:23:45.240Z,91.85
2023-04-06T13:26:14.126Z,71.97
2023-04-06T13:28:41.316Z,94.72
2023-04-06T13:31:09.036Z,72.50
2023-04-06T13:33:35.896Z,68.50
2023-04-06T13:36:03.258Z,67.93
2023-04-06T13:38:31.215Z,70.80
2023-04-06T13:40:58.531Z,69.93
2023-04-06T13:43:27.044Z,72.45
2023-04-06T13:45:56.834Z,70.65
2023-04-06T13:48:23.921Z,69.95
2023-04-06T13:50:50.788Z,69.63
2023-04-06T13:53:17.564Z,65.65
2023-04-06T13:55:44.545Z,67.43
2023-04-06T13:58:11.707Z,62.33
2023-04-06T14:00:38.998Z,60.22
2023-04-06T14:03:06.922Z,61.17
2023-04-06T14:05:34.288Z,63.72
2023-04-06T14:08:01.172Z,63.92
2023-04-06T14:10:28.563Z,63.08
2023-04-06T14:12:56.383Z,64.47
2023-04-06T14:15:23.382Z,63.67
2023-04-06T14:17:50.274Z,62.72
2023-04-06T14:20:16.972Z,64.68
2023-04-06T14:22:44.166Z,65.75
2023-04-06T14:25:12.018Z,64.88
2023-04-06T14:27:38.828Z,59.08
2023-04-06T14:30:05.995Z,68.07
2023-04-06T14:32:33.201Z,62.88
2023-04-06T14:34:59.893Z,73.43
2023-04-06T14:37:27.118Z,69.47
2023-04-06T14:39:53.881Z,65.22
2023-04-06T14:42:20.620Z,65.93
2023-04-06T14:44:47.638Z,66.32
2023-04-06T14:47:20.939Z,66.03
2023-04-06T14:49:48.597Z,70.93
2023-04-06T14:52:15.396Z,64.22
2023-04-06T14:54:42.112Z,63.70
2023-04-06T14:57:08.733Z,66.60
2023-04-06T14:59:37.876Z,66.95
2023-04-06T15:02:07.783Z,64.95
2023-04-06T15:04:38.116Z,66.80
2023-04-06T15:07:05.009Z,67.10
2023-04-06T15:09:32.042Z,65.28
2023-04-06T15:11:58.953Z,61.67
2023-04-06T15:14:25.789Z,67.35
2023-04-06T15:16:52.496Z,68.35
2023-04-06T15:19:19.224Z,69.50
2023-04-06T15:21:52.031Z,56.85
2023-04-06T15:24:18.793Z,64.32
2023-04-06T15:26:50.257Z,66.45
2023-04-06T15:29:16.873Z,65.78
2023-04-06T15:31:44.898Z,63.45
2023-04-06T15:34:12.012Z,63.58
2023-04-06T15:36:38.784Z,59.35
2023-04-06T15:39:09.281Z,64.45
2023-04-06T15:41:36.579Z,63.83
2023-04-06T15:44:03.362Z,65.25
2023-04-06T15:46:30.377Z,65.82
2023-04-06T15:48:57.509Z,67.93
2023-04-06T15:51:33.633Z,68.50
2023-04-06T15:54:00.309Z,70.80
2023-04-06T15:56:26.929Z,68.10
2023-04-06T15:58:53.612Z,63.67
2023-04-06T16:01:20.468Z,64.00
2023-04-06T16:03:47.371Z,59.45
2023-04-06T16:06:14.164Z,59.95
2023-04-06T16:08:41.265Z,60.47
2023-04-06T16:11:08.719Z,57.20
2023-04-06T16:13:36.288Z,56.38
2023-04-06T16:16:03.978Z,59.08
2023-04-06T16:18:31.418Z,58.03
2023-04-06T16:21:02.603Z,57.80
2023-04-06T16:23:29.473Z,58.08
2023-04-06T16:25:57.643Z,57.03
2023-04-06T16:28:25.427Z,56.10
2023-04-06T16:30:52.572Z,56.90
2023-04-06T16:33:19.388Z,56.22
2023-04-06T16:35:47.334Z,56.10
2023-04-06T16:38:14.650Z,55.47
2023-04-06T16:40:41.493Z,56.15
2023-04-06T16:43:09.628Z,52.75
2023-04-06T16:45:36.863Z,54.53
2023-04-06T16:48:03.579Z,55.63
2023-04-06T16:50:30.309Z,57.30
2023-04-06T16:52:57.010Z,52.42
2023-04-06T16:55:23.852Z,52.90
2023-04-06T16:57:50.746Z,50.85
2023-04-06T17:00:17.898Z,52.95
2023-04-06T17:02:47.479Z,52.25
2023-04-06T17:05:14.480Z,50.95
2023-04-06T17:07:41.250Z,52.22
2023-04-06T17:10:08.658Z,53.30
2023-04-06T17:12:35.494Z,52.05
2023-04-06T17:15:02.603Z,53.58
2023-04-06T17:17:29.275Z,54.10
2023-04-06T17:19:55.968Z,54.13
2023-04-06T17:22:22.573Z,54.60
2023-04-06T17:24:49.298Z,56.90
2023-04-06T17:27:16.134Z,57.35
2023-04-06T17:29:42.822Z,58.38
2023-04-06T17:32:10.339Z,60.47
2023-04-06T17:34:36.972Z,58.38
2023-04-06T17:37:03.630Z,58.72
2023-04-06T17:39:30.440Z,59.28
2023-04-06T17:41:57.124Z,57.20
2023-04-06T17:44:23.872Z,58.17
2023-04-06T17:46:50.544Z,41.13
2023-04-06T17:49:17.207Z,40.45
2023-04-06T17:51:44.977Z,40.38
2023-04-06T17:54:11.776Z,39.75
2023-04-06T17:56:38.917Z,57.92
2023-04-06T17:59:07.952Z,41.35
2023-04-06T18:01:34.872Z,43.65
2023-04-06T18:04:01.627Z,42.58
2023-04-06T18:06:28.306Z,41.45
2023-04-06T18:08:55.166Z,45.20
2023-04-06T18:11:21.997Z,40.58
2023-04-06T18:13:49.032Z,42.33
2023-04-06T18:16:17.387Z,39.92
2023-04-06T18:18:44.352Z,43.13
2023-04-06T18:21:10.991Z,42.47
2023-04-06T18:23:38.236Z,41.92
2023-04-06T18:26:05.914Z,40.15
2023-04-06T18:28:33.476Z,53.88
2023-04-06T18:31:00.496Z,41.40
2023-04-06T18:33:27.836Z,43.08
2023-04-06T18:35:56.822Z,40.25
2023-04-06T18:38:23.868Z,44.33
2023-04-06T18:40:50.532Z,45.28
2023-04-06T18:43:17.161Z,58.70
2023-04-06T18:45:43.969Z,45.10
2023-04-06T18:48:10.716Z,46.40
2023-04-06T18:50:37.352Z,44.58
2023-04-06T18:53:04.331Z,44.25
2023-04-06T18:55:33.837Z,44.70
2023-04-06T18:58:00.850Z,42.95
2023-04-06T19:00:27.582Z,43.42
2023-04-06T19:02:54.588Z,50.72
2023-04-06T19:05:22.145Z,47.08
2023-04-06T19:07:52.087Z,42.92
2023-04-06T19:10:19.340Z,49.08
2023-04-06T19:12:46.698Z,47.17
2023-04-06T19:15:13.492Z,46.58
2023-04-06T19:17:40.506Z,46.38
2023-04-06T19:20:08.320Z,44.63
2023-04-06T19:22:38.232Z,48.13
2023-04-06T19:25:05.896Z,46.00
2023-04-06T19:27:32.685Z,45.38
2023-04-06T19:30:00.211Z,44.00
2023-04-06T19:32:27.097Z,41.55
2023-04-06T19:34:54.051Z,40.67
2023-04-06T19:37:21.436Z,44.55
2023-04-06T19:39:48.366Z,60.38
2023-04-06T19:42:21.427Z,60.58
2023-04-06T19:44:48.503Z,51.53
2023-04-06T19:47:15.288Z,56.20
2023-04-06T19:49:42.027Z,52.88
2023-04-06T19:52:10.212Z,48.10
2023-04-06T19:54:37.764Z,49.78
2023-04-06T19:57:04.622Z,52.47
2023-04-06T19:59:31.845Z,61.15
2023-04-06T20:01:58.519Z,60.90
2023-04-06T20:04:25.660Z,50.17
2023-04-06T20:06:53.424Z,49.42
2023-04-06T20:09:21.698Z,55.25
2023-04-06T20:11:48.562Z,50.92
2023-04-06T20:14:15.979Z,51.30
2023-04-06T20:16:42.649Z,53.50
2023-04-06T20:19:09.359Z,48.03
2023-04-06T20:21:37.457Z,45.22
2023-04-06T20:24:05.559Z,45.35
2023-04-06T20:26:32.208Z,46.25
2023-04-06T20:28:58.814Z,46.20
2023-04-06T20:31:28.852Z,48.90
2023-04-06T20:33:55.908Z,42.88
2023-04-06T20:36:22.599Z,45.58
2023-04-06T20:38:49.456Z,44.20
2023-04-06T20:41:16.345Z,47.95
2023-04-06T20:43:42.989Z,50.90
2023-04-06T20:46:15.755Z,47.33
2023-04-06T20:48:42.472Z,44.72
2023-04-06T20:51:17.336Z,44.40
2023-04-06T20:53:43.967Z,45.05
2023-04-06T20:56:10.572Z,43.25
2023-04-06T20:58:37.191Z,42.30
2023-04-06T21:01:04.083Z,43.83
2023-04-06T21:03:30.959Z,44.22
2023-04-06T21:05:58.917Z,43.83
2023-04-06T21:08:25.577Z,40.75
2023-04-06T21:10:52.293Z,41.67
2023-04-06T21:13:18.912Z,42.00
2023-04-06T21:15:45.594Z,40.72
2023-04-06T21:18:12.344Z,42.05
2023-04-06T21:20:39.870Z,39.15
2023-04-06T21:23:06.566Z,38.72
2023-04-06T21:25:35.897Z,37.97
2023-04-06T21:28:02.804Z,38.08
2023-04-06T21:30:29.524Z,36.65
2023-04-06T21:32:56.222Z,37.45
2023-04-06T21:35:22.831Z,37.63
2023-04-06T21:37:49.879Z,37.92
2023-04-06T21:40:18.865Z,39.58
2023-04-06T21:42:45.710Z,38.75
2023-04-06T21:45:12.659Z,38.15
2023-04-06T21:47:39.909Z,38.75
2023-04-06T21:50:07.079Z,36.88
2023-04-06T21:52:33.742Z,36.92
2023-04-06T21:55:00.464Z,36.95
2023-04-06T21:57:27.196Z,36.53
2023-04-06T21:59:54.210Z,37.28
2023-04-06T22:02:21.645Z,35.28
2023-04-06T22:04:49.328Z,35.78
2023-04-06T22:07:16.043Z,34.92
2023-04-06T22:09:50.031Z,35.67
2023-04-06T22:12:18.031Z,37.03
2023-04-06T22:14:44.731Z,37.00
2023-04-06T22:17:11.569Z,36.25
2023-04-06T22:19:38.450Z,35.80
2023-04-06T22:22:05.072Z,35.17
2023-04-06T22:24:31.700Z,36.28
2023-04-06T22:26:58.363Z,36.08
2023-04-06T22:29:25.150Z,35.47
2023-04-06T22:31:51.935Z,33.63
2023-04-06T22:34:18.902Z,33.95
2023-04-06T22:36:45.702Z,33.03
2023-04-06T22:39:12.350Z,33.60
2023-04-06T22:41:39.013Z,34.08
2023-04-06T22:44:05.645Z,33.13
2023-04-06T22:46:32.262Z,33.20
2023-04-06T22:48:58.987Z,33.28
2023-04-06T22:51:27.911Z,32.85
2023-04-06T22:53:54.722Z,32.47
2023-04-06T22:56:22.087Z,31.73
2023-04-06T22:58:50.887Z,32.13
2023-04-06T23:01:17.592Z,31.40
2023-04-06T23:03:44.457Z,32.83
2023-04-06T23:06:11.445Z,31.52
2023-04-06T23:08:38.059Z,33.20
2023-04-06T23:11:04.690Z,31.85
2023-04-06T23:13:31.355Z,32.50
2023-04-06T23:15:58.000Z,32.55
2023-04-06T23:18:24.613Z,31.58
2023-04-06T23:20:51.216Z,31.50
2023-04-06T23:23:17.829Z,32.00
2023-04-06T23:25:44.411Z,31.45
2023-04-06T23:28:11.223Z,31.48
2023-04-06T23:30:37.895Z,32.08
2023-04-06T23:33:04.999Z,30.95
2023-04-06T23:35:31.720Z,32.72
2023-04-06T23:37:59.225Z,30.30
2023-04-06T23:40:26.227Z,30.92
2023-04-06T23:42:52.915Z,33.05
2023-04-06T23:45:19.740Z,31.52
2023-04-06T23:47:46.393Z,31.17
2023-04-06T23:50:13.029Z,28.40
2023-04-06T23:52:39.636Z,29.38
2023-04-06T23:55:07.078Z,30.13
2023-04-06T23:57:33.684Z,30.02
